sensor_id;sensor_type;location;lat;lon;timestamp;pressure;altitude;pressure_sealevel;temperature;humidity
77013;BME280;67260;53.130;17.982;2024-01-06T00:02:10;100652.03;;;-3.38;82.90
77013;BME280;67260;53.130;17.982;2024-01-06T00:04:36;100653.92;;;-3.41;83.31
77013;BME280;67260;53.130;17.982;2024-01-06T00:07:03;100650.31;;;-3.45;83.08
77013;BME280;67260;53.130;17.982;2024-01-06T00:09:32;100646.63;;;-3.42;83.55
77013;BME280;67260;53.130;17.982;2024-01-06T00:11:59;100645.00;;;-3.37;83.76
77013;BME280;67260;53.130;17.982;2024-01-06T00:14:25;100645.83;;;-3.35;83.33
77013;BME280;67260;53.130;17.982;2024-01-06T00:16:51;100644.40;;;-3.32;83.22
77013;BME280;67260;53.130;17.982;2024-01-06T00:19:17;100647.21;;;-3.32;82.90
77013;BME280;67260;53.130;17.982;2024-01-06T00:21:43;100644.30;;;-3.33;83.24
77013;BME280;67260;53.130;17.982;2024-01-06T00:24:09;100645.98;;;-3.32;83.24
77013;BME280;67260;53.130;17.982;2024-01-06T00:26:37;100645.58;;;-3.29;83.50
77013;BME280;67260;53.130;17.982;2024-01-06T01:48:26;100688.34;;;-3.18;84.04
77013;BME280;67260;53.130;17.982;2024-01-06T01:51:02;100690.72;;;-3.17;83.95
77013;BME280;67260;53.130;17.982;2024-01-06T01:54:01;100689.97;;;-3.16;84.08
77013;BME280;67260;53.130;17.982;2024-01-06T01:57:43;100694.88;;;-3.17;83.92
77013;BME280;67260;53.130;17.982;2024-01-06T02:00:13;100693.96;;;-3.19;83.92
77013;BME280;67260;53.130;17.982;2024-01-06T02:02:41;100689.71;;;-3.20;83.75
77013;BME280;67260;53.130;17.982;2024-01-06T02:15:09;100701.42;;;-3.25;83.93
77013;BME280;67260;53.130;17.982;2024-01-06T02:28:35;100680.65;;;-3.23;83.98
77013;BME280;67260;53.130;17.982;2024-01-06T02:31:18;100679.46;;;-3.19;84.12
77013;BME280;67260;53.130;17.982;2024-01-06T02:33:46;100676.51;;;-3.17;83.73
77013;BME280;67260;53.130;17.982;2024-01-06T02:36:47;100681.46;;;-3.12;83.52
77013;BME280;67260;53.130;17.982;2024-01-06T02:39:29;100681.15;;;-3.14;83.73
77013;BME280;67260;53.130;17.982;2024-01-06T02:42:16;100679.52;;;-3.11;83.68
77013;BME280;67260;53.130;17.982;2024-01-06T02:45:03;100686.16;;;-3.10;83.48
77013;BME280;67260;53.130;17.982;2024-01-06T02:55:07;100677.83;;;-3.14;83.41
77013;BME280;67260;53.130;17.982;2024-01-06T02:57:33;100683.59;;;-3.12;83.53
77013;BME280;67260;53.130;17.982;2024-01-06T03:00:01;100687.04;;;-3.17;83.31
77013;BME280;67260;53.130;17.982;2024-01-06T03:05:48;100686.38;;;-3.19;83.85
77013;BME280;67260;53.130;17.982;2024-01-06T03:08:23;100692.89;;;-3.14;83.80
77013;BME280;67260;53.130;17.982;2024-01-06T03:11:40;100692.20;;;-3.10;83.67
77013;BME280;67260;53.130;17.982;2024-01-06T03:14:22;100697.79;;;-3.06;83.47
77013;BME280;67260;53.130;17.982;2024-01-06T03:20:10;100698.58;;;-2.98;83.74
77013;BME280;67260;53.130;17.982;2024-01-06T03:41:52;100703.70;;;-3.08;83.28
77013;BME280;67260;53.130;17.982;2024-01-06T03:44:18;100702.50;;;-3.06;83.34
77013;BME280;67260;53.130;17.982;2024-01-06T03:59:26;100699.11;;;-3.06;83.11
77013;BME280;67260;53.130;17.982;2024-01-06T04:01:59;100698.02;;;-3.07;83.02
77013;BME280;67260;53.130;17.982;2024-01-06T04:04:36;100701.24;;;-3.06;82.99
77013;BME280;67260;53.130;17.982;2024-01-06T04:16:29;100708.42;;;-3.07;82.89
77013;BME280;67260;53.130;17.982;2024-01-06T04:30:08;100725.42;;;-2.99;82.99
77013;BME280;67260;53.130;17.982;2024-01-06T04:32:35;100730.14;;;-2.94;82.70
77013;BME280;67260;53.130;17.982;2024-01-06T04:35:01;100722.96;;;-2.93;82.35
77013;BME280;67260;53.130;17.982;2024-01-06T04:37:28;100726.08;;;-2.93;82.39
77013;BME280;67260;53.130;17.982;2024-01-06T04:50:40;100731.27;;;-2.95;82.10
77013;BME280;67260;53.130;17.982;2024-01-06T04:53:31;100733.29;;;-2.92;82.13
77013;BME280;67260;53.130;17.982;2024-01-06T04:55:57;100735.25;;;-2.89;82.27
77013;BME280;67260;53.130;17.982;2024-01-06T04:58:25;100742.90;;;-2.87;81.95
77013;BME280;67260;53.130;17.982;2024-01-06T05:01:18;100749.35;;;-2.87;81.95
77013;BME280;67260;53.130;17.982;2024-01-06T05:06:55;100753.84;;;-2.87;81.72
77013;BME280;67260;53.130;17.982;2024-01-06T05:09:22;100751.91;;;-2.87;81.62
77013;BME280;67260;53.130;17.982;2024-01-06T05:11:50;100757.69;;;-2.88;81.64
77013;BME280;67260;53.130;17.982;2024-01-06T05:14:52;100762.51;;;-2.85;81.66
77013;BME280;67260;53.130;17.982;2024-01-06T05:17:19;100748.23;;;-2.84;81.41
77013;BME280;67260;53.130;17.982;2024-01-06T05:19:45;100746.56;;;-2.85;81.35
77013;BME280;67260;53.130;17.982;2024-01-06T05:22:13;100753.11;;;-2.86;80.73
77013;BME280;67260;53.130;17.982;2024-01-06T05:36:38;100757.16;;;-2.87;80.99
77013;BME280;67260;53.130;17.982;2024-01-06T05:39:12;100761.30;;;-2.87;81.34
77013;BME280;67260;53.130;17.982;2024-01-06T05:41:38;100760.86;;;-2.86;81.31
77013;BME280;67260;53.130;17.982;2024-01-06T05:44:05;100755.59;;;-2.85;81.02
77013;BME280;67260;53.130;17.982;2024-01-06T05:46:31;100756.58;;;-2.82;81.17
77013;BME280;67260;53.130;17.982;2024-01-06T05:48:58;100758.95;;;-2.79;80.94
77013;BME280;67260;53.130;17.982;2024-01-06T05:51:25;100764.00;;;-2.80;80.47
77013;BME280;67260;53.130;17.982;2024-01-06T05:53:51;100767.18;;;-2.81;80.98
77013;BME280;67260;53.130;17.982;2024-01-06T05:56:27;100768.27;;;-2.79;80.51
77013;BME280;67260;53.130;17.982;2024-01-06T05:58:54;100774.56;;;-2.80;80.86
77013;BME280;67260;53.130;17.982;2024-01-06T06:01:21;100778.67;;;-2.79;80.92
77013;BME280;67260;53.130;17.982;2024-01-06T06:03:51;100782.21;;;-2.78;80.68
77013;BME280;67260;53.130;17.982;2024-01-06T06:06:18;100780.11;;;-2.80;80.71
77013;BME280;67260;53.130;17.982;2024-01-06T06:08:44;100790.04;;;-2.78;80.91
77013;BME280;67260;53.130;17.982;2024-01-06T06:11:10;100794.88;;;-2.76;80.99
77013;BME280;67260;53.130;17.982;2024-01-06T06:13:42;100806.48;;;-2.73;81.03
77013;BME280;67260;53.130;17.982;2024-01-06T06:16:11;100815.20;;;-2.70;81.07
77013;BME280;67260;53.130;17.982;2024-01-06T06:18:57;100814.55;;;-2.70;80.70
77013;BME280;67260;53.130;17.982;2024-01-06T06:21:24;100817.57;;;-2.69;80.75
77013;BME280;67260;53.130;17.982;2024-01-06T06:23:50;100824.02;;;-2.68;80.85
77013;BME280;67260;53.130;17.982;2024-01-06T06:26:16;100824.27;;;-2.66;80.48
77013;BME280;67260;53.130;17.982;2024-01-06T06:28:42;100825.72;;;-2.67;80.43
77013;BME280;67260;53.130;17.982;2024-01-06T06:31:08;100832.27;;;-2.69;80.58
77013;BME280;67260;53.130;17.982;2024-01-06T06:33:34;100828.91;;;-2.70;80.59
77013;BME280;67260;53.130;17.982;2024-01-06T06:36:00;100833.17;;;-2.69;80.77
77013;BME280;67260;53.130;17.982;2024-01-06T06:38:27;100834.91;;;-2.69;80.72
77013;BME280;67260;53.130;17.982;2024-01-06T06:40:54;100836.84;;;-2.72;80.54
77013;BME280;67260;53.130;17.982;2024-01-06T06:43:20;100842.19;;;-2.74;80.72
77013;BME280;67260;53.130;17.982;2024-01-06T06:45:46;100840.14;;;-2.74;80.73
77013;BME280;67260;53.130;17.982;2024-01-06T06:48:12;100850.42;;;-2.73;80.61
77013;BME280;67260;53.130;17.982;2024-01-06T06:50:38;100854.60;;;-2.73;80.76
77013;BME280;67260;53.130;17.982;2024-01-06T06:53:04;100849.06;;;-2.70;81.05
77013;BME280;67260;53.130;17.982;2024-01-06T06:55:31;100848.48;;;-2.70;80.72
77013;BME280;67260;53.130;17.982;2024-01-06T06:58:00;100849.03;;;-2.70;80.86
77013;BME280;67260;53.130;17.982;2024-01-06T07:00:29;100851.34;;;-2.73;80.92
77013;BME280;67260;53.130;17.982;2024-01-06T07:02:55;100856.30;;;-2.74;81.11
77013;BME280;67260;53.130;17.982;2024-01-06T07:05:21;100852.76;;;-2.76;81.15
77013;BME280;67260;53.130;17.982;2024-01-06T07:07:49;100851.43;;;-2.77;80.71
77013;BME280;67260;53.130;17.982;2024-01-06T07:10:15;100854.93;;;-2.77;81.10
77013;BME280;67260;53.130;17.982;2024-01-06T07:12:44;100861.10;;;-2.76;81.25
77013;BME280;67260;53.130;17.982;2024-01-06T07:15:10;100859.02;;;-2.74;81.13
77013;BME280;67260;53.130;17.982;2024-01-06T07:17:37;100856.05;;;-2.73;80.84
77013;BME280;67260;53.130;17.982;2024-01-06T07:20:07;100860.56;;;-2.74;80.74
77013;BME280;67260;53.130;17.982;2024-01-06T07:22:33;100860.00;;;-2.75;80.79
77013;BME280;67260;53.130;17.982;2024-01-06T07:25:00;100862.21;;;-2.73;80.96
77013;BME280;67260;53.130;17.982;2024-01-06T07:27:26;100864.72;;;-2.71;80.71
77013;BME280;67260;53.130;17.982;2024-01-06T07:29:52;100870.53;;;-2.73;80.52
77013;BME280;67260;53.130;17.982;2024-01-06T07:32:19;100876.48;;;-2.73;80.39
77013;BME280;67260;53.130;17.982;2024-01-06T07:34:45;100872.80;;;-2.73;80.67
77013;BME280;67260;53.130;17.982;2024-01-06T07:45:10;100888.53;;;-2.63;80.40
77013;BME280;67260;53.130;17.982;2024-01-06T07:47:48;100896.26;;;-2.62;80.46
77013;BME280;67260;53.130;17.982;2024-01-06T07:50:15;100908.62;;;-2.61;80.11
77013;BME280;67260;53.130;17.982;2024-01-06T07:52:42;100912.02;;;-2.59;80.24
77013;BME280;67260;53.130;17.982;2024-01-06T07:55:11;100918.55;;;-2.56;80.04
77013;BME280;67260;53.130;17.982;2024-01-06T07:57:52;100925.58;;;-2.53;79.68
77013;BME280;67260;53.130;17.982;2024-01-06T08:01:15;100941.30;;;-2.50;79.91
77013;BME280;67260;53.130;17.982;2024-01-06T08:03:44;100940.79;;;-2.44;80.04
77013;BME280;67260;53.130;17.982;2024-01-06T08:13:27;100944.98;;;-2.31;79.16
77013;BME280;67260;53.130;17.982;2024-01-06T08:16:28;100946.27;;;-2.27;79.19
77013;BME280;67260;53.130;17.982;2024-01-06T08:44:11;100990.86;;;-2.01;78.33
77013;BME280;67260;53.130;17.982;2024-01-06T08:46:41;100995.38;;;-1.94;78.41
77013;BME280;67260;53.130;17.982;2024-01-06T08:49:07;101003.98;;;-1.91;78.13
77013;BME280;67260;53.130;17.982;2024-01-06T08:51:34;101008.61;;;-1.90;78.14
77013;BME280;67260;53.130;17.982;2024-01-06T08:54:22;101009.89;;;-1.89;77.81
77013;BME280;67260;53.130;17.982;2024-01-06T08:56:48;101009.69;;;-1.86;78.22
77013;BME280;67260;53.130;17.982;2024-01-06T08:59:36;101017.19;;;-1.82;78.09
77013;BME280;67260;53.130;17.982;2024-01-06T09:03:27;101016.23;;;-1.79;77.49
77013;BME280;67260;53.130;17.982;2024-01-06T09:07:25;101020.51;;;-1.80;77.10
77013;BME280;67260;53.130;17.982;2024-01-06T09:13:48;101030.97;;;-1.81;76.48
77013;BME280;67260;53.130;17.982;2024-01-06T09:16:17;101026.55;;;-1.82;77.14
77013;BME280;67260;53.130;17.982;2024-01-06T09:19:09;101033.34;;;-1.76;77.43
77013;BME280;67260;53.130;17.982;2024-01-06T09:23:15;101034.32;;;-1.71;77.22
77013;BME280;67260;53.130;17.982;2024-01-06T09:25:42;101037.28;;;-1.67;77.25
77013;BME280;67260;53.130;17.982;2024-01-06T09:28:12;101040.40;;;-1.61;77.00
77013;BME280;67260;53.130;17.982;2024-01-06T09:30:38;101041.09;;;-1.64;76.09
77013;BME280;67260;53.130;17.982;2024-01-06T09:33:04;101044.38;;;-1.66;76.00
77013;BME280;67260;53.130;17.982;2024-01-06T09:35:30;101048.17;;;-1.68;76.08
77013;BME280;67260;53.130;17.982;2024-01-06T09:37:56;101046.18;;;-1.67;76.47
77013;BME280;67260;53.130;17.982;2024-01-06T09:40:23;101043.81;;;-1.66;75.97
77013;BME280;67260;53.130;17.982;2024-01-06T09:42:50;101041.47;;;-1.65;76.04
77013;BME280;67260;53.130;17.982;2024-01-06T09:45:17;101038.36;;;-1.63;75.99
77013;BME280;67260;53.130;17.982;2024-01-06T09:47:46;101045.06;;;-1.61;75.53
77013;BME280;67260;53.130;17.982;2024-01-06T09:50:17;101048.29;;;-1.63;75.06
77013;BME280;67260;53.130;17.982;2024-01-06T09:52:46;101047.55;;;-1.62;75.38
77013;BME280;67260;53.130;17.982;2024-01-06T09:55:24;101049.73;;;-1.61;75.44
77013;BME280;67260;53.130;17.982;2024-01-06T09:57:55;101051.65;;;-1.59;76.01
77013;BME280;67260;53.130;17.982;2024-01-06T10:00:21;101055.20;;;-1.55;75.51
77013;BME280;67260;53.130;17.982;2024-01-06T10:02:48;101060.14;;;-1.55;75.80
77013;BME280;67260;53.130;17.982;2024-01-06T10:05:15;101057.41;;;-1.57;75.35
77013;BME280;67260;53.130;17.982;2024-01-06T10:07:46;101062.34;;;-1.56;75.48
77013;BME280;67260;53.130;17.982;2024-01-06T10:10:13;101061.61;;;-1.58;74.98
77013;BME280;67260;53.130;17.982;2024-01-06T10:12:41;101060.27;;;-1.60;75.11
77013;BME280;67260;53.130;17.982;2024-01-06T10:15:09;101060.67;;;-1.61;75.02
77013;BME280;67260;53.130;17.982;2024-01-06T10:17:39;101064.82;;;-1.61;75.09
77013;BME280;67260;53.130;17.982;2024-01-06T10:20:07;101058.11;;;-1.60;75.20
77013;BME280;67260;53.130;17.982;2024-01-06T10:22:35;101056.21;;;-1.60;74.47
77013;BME280;67260;53.130;17.982;2024-01-06T10:25:02;101053.50;;;-1.62;74.45
77013;BME280;67260;53.130;17.982;2024-01-06T10:27:28;101058.11;;;-1.62;74.63
77013;BME280;67260;53.130;17.982;2024-01-06T10:30:00;101056.92;;;-1.62;74.74
77013;BME280;67260;53.130;17.982;2024-01-06T10:32:42;101056.60;;;-1.60;74.38
77013;BME280;67260;53.130;17.982;2024-01-06T11:22:33;101076.04;;;-1.58;71.61
77013;BME280;67260;53.130;17.982;2024-01-06T11:25:24;101072.70;;;-1.59;72.34
77013;BME280;67260;53.130;17.982;2024-01-06T11:28:07;101078.02;;;-1.57;72.45
77013;BME280;67260;53.130;17.982;2024-01-06T11:30:36;101076.23;;;-1.56;71.75
77013;BME280;67260;53.130;17.982;2024-01-06T11:43:10;101088.83;;;-1.57;72.43
77013;BME280;67260;53.130;17.982;2024-01-06T11:45:42;101092.54;;;-1.51;72.19
77013;BME280;67260;53.130;17.982;2024-01-06T11:48:49;101083.46;;;-1.51;71.61
77013;BME280;67260;53.130;17.982;2024-01-06T11:55:56;101096.45;;;-1.55;71.04
77013;BME280;67260;53.130;17.982;2024-01-06T11:58:30;101101.73;;;-1.57;70.34
77013;BME280;67260;53.130;17.982;2024-01-06T12:00:56;101100.88;;;-1.62;70.60
77013;BME280;67260;53.130;17.982;2024-01-06T12:03:23;101103.22;;;-1.59;71.50
77013;BME280;67260;53.130;17.982;2024-01-06T12:05:59;101100.27;;;-1.57;70.70
77013;BME280;67260;53.130;17.982;2024-01-06T12:08:26;101098.63;;;-1.58;71.03
77013;BME280;67260;53.130;17.982;2024-01-06T12:11:07;101096.95;;;-1.57;71.25
77013;BME280;67260;53.130;17.982;2024-01-06T12:13:33;101100.14;;;-1.55;71.95
77013;BME280;67260;53.130;17.982;2024-01-06T12:15:59;101092.42;;;-1.52;71.94
77013;BME280;67260;53.130;17.982;2024-01-06T12:18:26;101093.87;;;-1.48;72.40
77013;BME280;67260;53.130;17.982;2024-01-06T12:20:53;101101.30;;;-1.46;71.70
77013;BME280;67260;53.130;17.982;2024-01-06T12:23:28;101103.33;;;-1.45;71.12
77013;BME280;67260;53.130;17.982;2024-01-06T12:25:55;101101.84;;;-1.46;71.32
77013;BME280;67260;53.130;17.982;2024-01-06T12:28:21;101098.27;;;-1.47;70.92
77013;BME280;67260;53.130;17.982;2024-01-06T12:30:50;101095.48;;;-1.49;70.79
77013;BME280;67260;53.130;17.982;2024-01-06T12:33:19;101100.35;;;-1.47;70.99
77013;BME280;67260;53.130;17.982;2024-01-06T12:35:45;101097.27;;;-1.43;70.87
77013;BME280;67260;53.130;17.982;2024-01-06T12:38:11;101092.77;;;-1.41;71.03
77013;BME280;67260;53.130;17.982;2024-01-06T12:40:37;101091.36;;;-1.41;70.27
77013;BME280;67260;53.130;17.982;2024-01-06T12:43:04;101101.60;;;-1.41;70.06
77013;BME280;67260;53.130;17.982;2024-01-06T12:45:56;101103.88;;;-1.43;69.63
77013;BME280;67260;53.130;17.982;2024-01-06T12:48:25;101103.55;;;-1.50;68.19
77013;BME280;67260;53.130;17.982;2024-01-06T12:50:52;101100.83;;;-1.53;69.27
77013;BME280;67260;53.130;17.982;2024-01-06T12:53:33;101106.02;;;-1.55;68.44
77013;BME280;67260;53.130;17.982;2024-01-06T12:55:59;101107.95;;;-1.55;68.80
77013;BME280;67260;53.130;17.982;2024-01-06T12:58:25;101113.88;;;-1.53;69.07
77013;BME280;67260;53.130;17.982;2024-01-06T13:00:51;101114.16;;;-1.52;69.36
77013;BME280;67260;53.130;17.982;2024-01-06T13:03:17;101118.40;;;-1.51;69.30
77013;BME280;67260;53.130;17.982;2024-01-06T13:05:44;101121.45;;;-1.55;68.23
77013;BME280;67260;53.130;17.982;2024-01-06T13:08:12;101117.21;;;-1.60;67.67
77013;BME280;67260;53.130;17.982;2024-01-06T13:10:40;101115.89;;;-1.68;68.46
77013;BME280;67260;53.130;17.982;2024-01-06T13:13:06;101124.79;;;-1.67;68.03
77013;BME280;67260;53.130;17.982;2024-01-06T13:15:32;101119.89;;;-1.66;68.61
77013;BME280;67260;53.130;17.982;2024-01-06T13:17:58;101118.95;;;-1.65;67.32
77013;BME280;67260;53.130;17.982;2024-01-06T13:20:24;101126.07;;;-1.65;67.30
77013;BME280;67260;53.130;17.982;2024-01-06T13:22:50;101126.21;;;-1.65;67.65
77013;BME280;67260;53.130;17.982;2024-01-06T13:25:19;101123.07;;;-1.62;67.67
77013;BME280;67260;53.130;17.982;2024-01-06T13:27:47;101122.27;;;-1.58;68.58
77013;BME280;67260;53.130;17.982;2024-01-06T13:30:15;101125.79;;;-1.50;68.39
77013;BME280;67260;53.130;17.982;2024-01-06T13:32:43;101123.54;;;-1.48;67.61
77013;BME280;67260;53.130;17.982;2024-01-06T13:35:09;101129.29;;;-1.50;67.33
77013;BME280;67260;53.130;17.982;2024-01-06T13:37:39;101134.94;;;-1.54;67.04
77013;BME280;67260;53.130;17.982;2024-01-06T13:40:08;101133.06;;;-1.59;67.10
77013;BME280;67260;53.130;17.982;2024-01-06T13:42:43;101133.27;;;-1.63;66.80
77013;BME280;67260;53.130;17.982;2024-01-06T13:46:06;101133.02;;;-1.70;67.42
77013;BME280;67260;53.130;17.982;2024-01-06T13:51:41;101143.27;;;-1.76;66.34
77013;BME280;67260;53.130;17.982;2024-01-06T13:54:08;101136.55;;;-1.79;67.65
77013;BME280;67260;53.130;17.982;2024-01-06T13:56:35;101133.91;;;-1.81;66.89
77013;BME280;67260;53.130;17.982;2024-01-06T13:59:02;101143.14;;;-1.84;67.20
77013;BME280;67260;53.130;17.982;2024-01-06T14:01:29;101145.75;;;-1.86;67.71
77013;BME280;67260;53.130;17.982;2024-01-06T14:03:56;101154.68;;;-1.89;67.09
77013;BME280;67260;53.130;17.982;2024-01-06T14:06:25;101161.54;;;-1.93;67.38
77013;BME280;67260;53.130;17.982;2024-01-06T14:08:59;101160.05;;;-1.94;68.26
77013;BME280;67260;53.130;17.982;2024-01-06T14:11:26;101173.33;;;-1.93;68.23
77013;BME280;67260;53.130;17.982;2024-01-06T14:13:53;101164.92;;;-1.94;68.08
77013;BME280;67260;53.130;17.982;2024-01-06T14:16:19;101168.87;;;-1.96;68.30
77013;BME280;67260;53.130;17.982;2024-01-06T14:18:46;101171.44;;;-1.95;68.33
77013;BME280;67260;53.130;17.982;2024-01-06T14:21:12;101170.69;;;-1.97;68.19
77013;BME280;67260;53.130;17.982;2024-01-06T14:23:41;101175.33;;;-1.99;68.19
77013;BME280;67260;53.130;17.982;2024-01-06T14:26:07;101180.41;;;-1.99;68.88
77013;BME280;67260;53.130;17.982;2024-01-06T14:29:04;101182.90;;;-1.98;69.10
77013;BME280;67260;53.130;17.982;2024-01-06T14:38:05;101187.05;;;-2.02;69.34
77013;BME280;67260;53.130;17.982;2024-01-06T14:40:32;101191.80;;;-2.03;69.45
77013;BME280;67260;53.130;17.982;2024-01-06T14:43:09;101196.83;;;-2.03;69.82
77013;BME280;67260;53.130;17.982;2024-01-06T14:45:45;101200.63;;;-2.05;69.50
77013;BME280;67260;53.130;17.982;2024-01-06T14:48:11;101199.16;;;-2.08;68.67
77013;BME280;67260;53.130;17.982;2024-01-06T14:50:38;101195.73;;;-2.11;69.26
77013;BME280;67260;53.130;17.982;2024-01-06T14:53:05;101200.08;;;-2.11;69.06
77013;BME280;67260;53.130;17.982;2024-01-06T14:55:32;101206.44;;;-2.15;69.17
77013;BME280;67260;53.130;17.982;2024-01-06T14:57:59;101203.68;;;-2.20;68.79
77013;BME280;67260;53.130;17.982;2024-01-06T15:00:26;101211.31;;;-2.22;69.48
77013;BME280;67260;53.130;17.982;2024-01-06T15:02:53;101208.49;;;-2.24;69.21
77013;BME280;67260;53.130;17.982;2024-01-06T15:05:19;101216.08;;;-2.25;69.28
77013;BME280;67260;53.130;17.982;2024-01-06T15:07:45;101214.86;;;-2.26;69.59
77013;BME280;67260;53.130;17.982;2024-01-06T15:10:11;101219.41;;;-2.26;69.86
77013;BME280;67260;53.130;17.982;2024-01-06T15:12:38;101216.52;;;-2.27;69.51
77013;BME280;67260;53.130;17.982;2024-01-06T15:15:05;101224.52;;;-2.27;69.14
77013;BME280;67260;53.130;17.982;2024-01-06T15:17:33;101227.11;;;-2.27;69.72
77013;BME280;67260;53.130;17.982;2024-01-06T15:19:59;101226.79;;;-2.27;69.42
77013;BME280;67260;53.130;17.982;2024-01-06T15:22:27;101231.44;;;-2.29;69.38
77013;BME280;67260;53.130;17.982;2024-01-06T15:24:56;101235.57;;;-2.32;69.64
77013;BME280;67260;53.130;17.982;2024-01-06T15:27:23;101243.52;;;-2.31;70.08
77013;BME280;67260;53.130;17.982;2024-01-06T15:29:50;101246.71;;;-2.30;69.90
77013;BME280;67260;53.130;17.982;2024-01-06T15:32:22;101253.86;;;-2.27;69.56
77013;BME280;67260;53.130;17.982;2024-01-06T15:34:49;101250.82;;;-2.27;69.68
77013;BME280;67260;53.130;17.982;2024-01-06T15:37:47;101251.53;;;-2.26;68.81
77013;BME280;67260;53.130;17.982;2024-01-06T15:40:13;101254.79;;;-2.28;69.44
77013;BME280;67260;53.130;17.982;2024-01-06T15:42:42;101256.52;;;-2.28;69.28
77013;BME280;67260;53.130;17.982;2024-01-06T15:45:08;101257.51;;;-2.28;69.31
77013;BME280;67260;53.130;17.982;2024-01-06T15:47:38;101258.20;;;-2.31;68.99
77013;BME280;67260;53.130;17.982;2024-01-06T15:50:05;101267.72;;;-2.30;69.16
77013;BME280;67260;53.130;17.982;2024-01-06T15:52:35;101271.73;;;-2.30;69.03
77013;BME280;67260;53.130;17.982;2024-01-06T15:55:01;101267.71;;;-2.35;68.89
77013;BME280;67260;53.130;17.982;2024-01-06T15:57:27;101269.27;;;-2.35;69.22
77013;BME280;67260;53.130;17.982;2024-01-06T15:59:59;101269.92;;;-2.37;68.65
77013;BME280;67260;53.130;17.982;2024-01-06T16:02:25;101271.23;;;-2.38;69.24
77013;BME280;67260;53.130;17.982;2024-01-06T16:04:51;101273.27;;;-2.37;69.43
77013;BME280;67260;53.130;17.982;2024-01-06T16:07:17;101273.26;;;-2.37;69.45
77013;BME280;67260;53.130;17.982;2024-01-06T16:09:44;101278.14;;;-2.35;69.32
77013;BME280;67260;53.130;17.982;2024-01-06T16:12:10;101275.80;;;-2.34;69.31
77013;BME280;67260;53.130;17.982;2024-01-06T16:14:36;101277.56;;;-2.34;69.10
77013;BME280;67260;53.130;17.982;2024-01-06T16:17:03;101282.26;;;-2.35;68.95
77013;BME280;67260;53.130;17.982;2024-01-06T16:19:29;101287.60;;;-2.36;68.98
77013;BME280;67260;53.130;17.982;2024-01-06T16:21:58;101294.14;;;-2.38;69.11
77013;BME280;67260;53.130;17.982;2024-01-06T16:24:26;101305.79;;;-2.39;69.19
77013;BME280;67260;53.130;17.982;2024-01-06T16:26:54;101304.22;;;-2.41;68.83
77013;BME280;67260;53.130;17.982;2024-01-06T16:29:21;101300.09;;;-2.43;69.07
77013;BME280;67260;53.130;17.982;2024-01-06T16:31:47;101305.25;;;-2.45;68.26
77013;BME280;67260;53.130;17.982;2024-01-06T16:34:16;101301.58;;;-2.47;68.82
77013;BME280;67260;53.130;17.982;2024-01-06T16:36:42;101303.70;;;-2.48;68.69
77013;BME280;67260;53.130;17.982;2024-01-06T16:39:08;101299.38;;;-2.51;69.03
77013;BME280;67260;53.130;17.982;2024-01-06T16:41:34;101302.73;;;-2.52;69.26
77013;BME280;67260;53.130;17.982;2024-01-06T16:44:00;101302.52;;;-2.53;69.17
77013;BME280;67260;53.130;17.982;2024-01-06T16:46:26;101299.08;;;-2.54;68.90
77013;BME280;67260;53.130;17.982;2024-01-06T16:48:53;101301.18;;;-2.54;69.10
77013;BME280;67260;53.130;17.982;2024-01-06T16:51:19;101312.41;;;-2.53;68.89
77013;BME280;67260;53.130;17.982;2024-01-06T16:54:01;101318.02;;;-2.54;68.56
77013;BME280;67260;53.130;17.982;2024-01-06T16:56:31;101322.79;;;-2.55;68.67
77013;BME280;67260;53.130;17.982;2024-01-06T16:58:57;101318.55;;;-2.56;68.82
77013;BME280;67260;53.130;17.982;2024-01-06T17:01:23;101321.52;;;-2.57;69.34
77013;BME280;67260;53.130;17.982;2024-01-06T17:03:50;101326.92;;;-2.57;68.92
77013;BME280;67260;53.130;17.982;2024-01-06T17:06:17;101328.96;;;-2.59;68.78
77013;BME280;67260;53.130;17.982;2024-01-06T17:08:43;101329.17;;;-2.60;68.87
77013;BME280;67260;53.130;17.982;2024-01-06T17:11:09;101333.59;;;-2.61;68.30
77013;BME280;67260;53.130;17.982;2024-01-06T17:13:36;101326.45;;;-2.63;68.30
77013;BME280;67260;53.130;17.982;2024-01-06T17:16:02;101329.79;;;-2.64;68.48
77013;BME280;67260;53.130;17.982;2024-01-06T17:18:28;101336.07;;;-2.64;68.91
77013;BME280;67260;53.130;17.982;2024-01-06T17:20:54;101344.16;;;-2.64;68.27
77013;BME280;67260;53.130;17.982;2024-01-06T17:23:20;101343.67;;;-2.64;68.48
77013;BME280;67260;53.130;17.982;2024-01-06T17:25:47;101348.59;;;-2.62;68.30
77013;BME280;67260;53.130;17.982;2024-01-06T17:28:13;101346.60;;;-2.61;68.44
77013;BME280;67260;53.130;17.982;2024-01-06T17:30:39;101354.38;;;-2.61;68.42
77013;BME280;67260;53.130;17.982;2024-01-06T17:33:05;101361.41;;;-2.60;68.17
77013;BME280;67260;53.130;17.982;2024-01-06T17:35:31;101362.80;;;-2.62;67.47
77013;BME280;67260;53.130;17.982;2024-01-06T17:37:57;101361.45;;;-2.66;67.61
77013;BME280;67260;53.130;17.982;2024-01-06T17:40:23;101360.18;;;-2.67;68.30
77013;BME280;67260;53.130;17.982;2024-01-06T17:42:49;101363.70;;;-2.68;67.55
77013;BME280;67260;53.130;17.982;2024-01-06T17:45:15;101368.70;;;-2.70;67.65
77013;BME280;67260;53.130;17.982;2024-01-06T17:47:42;101369.80;;;-2.73;67.63
77013;BME280;67260;53.130;17.982;2024-01-06T17:50:10;101371.58;;;-2.77;67.76
77013;BME280;67260;53.130;17.982;2024-01-06T17:52:36;101374.55;;;-2.79;67.77
77013;BME280;67260;53.130;17.982;2024-01-06T17:55:02;101381.33;;;-2.82;67.90
77013;BME280;67260;53.130;17.982;2024-01-06T17:57:29;101377.55;;;-2.85;67.63
77013;BME280;67260;53.130;17.982;2024-01-06T18:00:02;101384.77;;;-2.87;68.37
77013;BME280;67260;53.130;17.982;2024-01-06T18:02:31;101391.66;;;-2.86;68.16
77013;BME280;67260;53.130;17.982;2024-01-06T18:04:57;101392.68;;;-2.86;68.35
77013;BME280;67260;53.130;17.982;2024-01-06T18:07:22;101392.71;;;-2.87;67.68
77013;BME280;67260;53.130;17.982;2024-01-06T18:09:51;101392.16;;;-2.86;68.17